sensor_id;sensor_type;location;lat;lon;timestamp;temperature;humidity
5176;DHT22;2607;50.934;6.934;2023-02-04T00:01:28;9.60;99.90
5176;DHT22;2607;50.934;6.934;2023-02-04T00:03:54;9.60;99.90
5176;DHT22;2607;50.934;6.934;2023-02-04T00:06:19;9.60;99.90
5176;DHT22;2607;50.934;6.934;2023-02-04T00:08:45;9.50;99.90
5176;DHT22;2607;50.934;6.934;2023-02-04T00:11:10;9.50;99.90
5176;DHT22;2607;50.934;6.934;2023-02-04T00:13:36;9.40;99.90
5176;DHT22;2607;50.934;6.934;2023-02-04T00:16:01;9.40;99.90
5176;DHT22;2607;50.934;6.934;2023-02-04T00:18:27;9.40;99.90
5176;DHT22;2607;50.934;6.934;2023-02-04T00:20:53;9.40;99.90
5176;DHT22;2607;50.934;6.934;2023-02-04T00:23:19;9.60;99.90
5176;DHT22;2607;50.934;6.934;2023-02-04T00:25:44;9.60;99.90
5176;DHT22;2607;50.934;6.934;2023-02-04T00:28:10;9.60;99.90
5176;DHT22;2607;50.934;6.934;2023-02-04T00:30:35;9.50;99.90
5176;DHT22;2607;50.934;6.934;2023-02-04T00:33:01;9.50;99.90
5176;DHT22;2607;50.934;6.934;2023-02-04T00:35:27;9.40;99.90
5176;DHT22;2607;50.934;6.934;2023-02-04T00:37:52;9.40;99.90
5176;DHT22;2607;50.934;6.934;2023-02-04T00:40:18;9.30;99.90
5176;DHT22;2607;50.934;6.934;2023-02-04T00:42:44;9.30;99.90
5176;DHT22;2607;50.934;6.934;2023-02-04T00:45:10;9.30;99.90
5176;DHT22;2607;50.934;6.934;2023-02-04T00:47:37;9.40;99.90
5176;DHT22;2607;50.934;6.934;2023-02-04T00:50:02;9.30;99.90
5176;DHT22;2607;50.934;6.934;2023-02-04T00:52:28;9.30;99.90
5176;DHT22;2607;50.934;6.934;2023-02-04T00:54:54;9.30;99.90
5176;DHT22;2607;50.934;6.934;2023-02-04T00:57:19;9.30;99.90
5176;DHT22;2607;50.934;6.934;2023-02-04T00:59:45;9.30;99.90
5176;DHT22;2607;50.934;6.934;2023-02-04T01:02:10;9.40;99.90
5176;DHT22;2607;50.934;6.934;2023-02-04T01:04:36;9.40;99.90
5176;DHT22;2607;50.934;6.934;2023-02-04T01:07:01;9.40;99.90
5176;DHT22;2607;50.934;6.934;2023-02-04T01:09:27;9.30;99.90
5176;DHT22;2607;50.934;6.934;2023-02-04T01:11:52;9.20;99.90
5176;DHT22;2607;50.934;6.934;2023-02-04T01:14:19;9.20;99.90
5176;DHT22;2607;50.934;6.934;2023-02-04T01:16:45;9.20;99.90
5176;DHT22;2607;50.934;6.934;2023-02-04T01:19:11;9.20;99.90
5176;DHT22;2607;50.934;6.934;2023-02-04T01:21:37;9.20;99.90
5176;DHT22;2607;50.934;6.934;2023-02-04T01:24:03;9.20;99.90
5176;DHT22;2607;50.934;6.934;2023-02-04T01:26:28;9.20;99.90
5176;DHT22;2607;50.934;6.934;2023-02-04T01:28:54;9.20;99.90
5176;DHT22;2607;50.934;6.934;2023-02-04T01:31:20;9.10;99.90
5176;DHT22;2607;50.934;6.934;2023-02-04T01:33:45;9.10;99.90
5176;DHT22;2607;50.934;6.934;2023-02-04T01:36:11;9.10;99.90
5176;DHT22;2607;50.934;6.934;2023-02-04T01:38:36;9.10;99.90
5176;DHT22;2607;50.934;6.934;2023-02-04T01:41:02;9.10;99.90
5176;DHT22;2607;50.934;6.934;2023-02-04T01:43:28;9.10;99.90
5176;DHT22;2607;50.934;6.934;2023-02-04T01:45:54;9.00;99.90
5176;DHT22;2607;50.934;6.934;2023-02-04T01:48:21;9.00;99.90
5176;DHT22;2607;50.934;6.934;2023-02-04T01:50:51;9.00;99.90
5176;DHT22;2607;50.934;6.934;2023-02-04T01:53:20;9.00;99.90
5176;DHT22;2607;50.934;6.934;2023-02-04T01:55:46;9.00;99.90
5176;DHT22;2607;50.934;6.934;2023-02-04T01:58:13;9.00;99.90
5176;DHT22;2607;50.934;6.934;2023-02-04T02:00:39;9.00;99.90
5176;DHT22;2607;50.934;6.934;2023-02-04T02:03:06;9.00;99.90
5176;DHT22;2607;50.934;6.934;2023-02-04T02:05:49;9.10;99.90
5176;DHT22;2607;50.934;6.934;2023-02-04T02:08:17;9.00;99.90
5176;DHT22;2607;50.934;6.934;2023-02-04T02:10:46;9.00;99.90
5176;DHT22;2607;50.934;6.934;2023-02-04T02:13:15;9.00;99.90
5176;DHT22;2607;50.934;6.934;2023-02-04T02:15:42;9.00;99.90
5176;DHT22;2607;50.934;6.934;2023-02-04T02:18:09;9.00;99.90
5176;DHT22;2607;50.934;6.934;2023-02-04T02:20:35;9.00;99.90
5176;DHT22;2607;50.934;6.934;2023-02-04T02:23:03;8.90;99.90
5176;DHT22;2607;50.934;6.934;2023-02-04T02:25:30;8.90;99.90
5176;DHT22;2607;50.934;6.934;2023-02-04T02:27:57;8.90;99.90
5176;DHT22;2607;50.934;6.934;2023-02-04T02:30:22;8.90;99.90
5176;DHT22;2607;50.934;6.934;2023-02-04T02:32:49;8.90;99.90
5176;DHT22;2607;50.934;6.934;2023-02-04T02:35:15;8.90;99.90
5176;DHT22;2607;50.934;6.934;2023-02-04T02:37:41;8.90;99.90
5176;DHT22;2607;50.934;6.934;2023-02-04T02:40:08;8.90;99.90
5176;DHT22;2607;50.934;6.934;2023-02-04T02:42:34;8.90;99.90
5176;DHT22;2607;50.934;6.934;2023-02-04T02:45:13;8.80;99.90
5176;DHT22;2607;50.934;6.934;2023-02-04T02:47:40;8.80;99.90
5176;DHT22;2607;50.934;6.934;2023-02-04T02:50:07;8.80;99.90
5176;DHT22;2607;50.934;6.934;2023-02-04T02:52:35;8.80;99.90
5176;DHT22;2607;50.934;6.934;2023-02-04T02:55:01;8.80;99.90
5176;DHT22;2607;50.934;6.934;2023-02-04T02:57:26;8.80;99.90
5176;DHT22;2607;50.934;6.934;2023-02-04T02:59:52;8.80;99.90
5176;DHT22;2607;50.934;6.934;2023-02-04T03:02:19;8.80;99.90
5176;DHT22;2607;50.934;6.934;2023-02-04T03:04:50;8.70;99.90
5176;DHT22;2607;50.934;6.934;2023-02-04T03:07:18;8.70;99.90
5176;DHT22;2607;50.934;6.934;2023-02-04T03:09:44;8.70;99.90
5176;DHT22;2607;50.934;6.934;2023-02-04T03:12:10;8.70;99.90
5176;DHT22;2607;50.934;6.934;2023-02-04T03:14:36;8.70;99.90
5176;DHT22;2607;50.934;6.934;2023-02-04T03:17:04;8.80;99.90
5176;DHT22;2607;50.934;6.934;2023-02-04T03:19:32;8.80;99.90
5176;DHT22;2607;50.934;6.934;2023-02-04T03:21:58;8.70;99.90
5176;DHT22;2607;50.934;6.934;2023-02-04T03:24:24;8.70;99.90
5176;DHT22;2607;50.934;6.934;2023-02-04T03:26:50;8.70;99.90
5176;DHT22;2607;50.934;6.934;2023-02-04T03:29:16;8.70;99.90
5176;DHT22;2607;50.934;6.934;2023-02-04T03:31:41;8.60;99.90
5176;DHT22;2607;50.934;6.934;2023-02-04T03:34:07;8.60;99.90
5176;DHT22;2607;50.934;6.934;2023-02-04T03:36:32;8.60;99.90
5176;DHT22;2607;50.934;6.934;2023-02-04T03:38:58;8.70;99.90
5176;DHT22;2607;50.934;6.934;2023-02-04T03:41:23;8.60;99.90
5176;DHT22;2607;50.934;6.934;2023-02-04T03:43:49;8.60;99.90
5176;DHT22;2607;50.934;6.934;2023-02-04T03:46:14;8.60;99.90
5176;DHT22;2607;50.934;6.934;2023-02-04T03:48:40;8.60;99.90
5176;DHT22;2607;50.934;6.934;2023-02-04T03:51:06;8.70;99.90
5176;DHT22;2607;50.934;6.934;2023-02-04T03:53:31;8.60;99.90
5176;DHT22;2607;50.934;6.934;2023-02-04T03:55:57;8.60;99.90
5176;DHT22;2607;50.934;6.934;2023-02-04T03:58:23;8.60;99.90
5176;DHT22;2607;50.934;6.934;2023-02-04T04:00:49;8.60;99.90
5176;DHT22;2607;50.934;6.934;2023-02-04T04:03:14;8.60;99.90
5176;DHT22;2607;50.934;6.934;2023-02-04T04:05:40;8.60;99.90
5176;DHT22;2607;50.934;6.934;2023-02-04T04:08:05;8.70;99.90
5176;DHT22;2607;50.934;6.934;2023-02-04T04:10:31;8.70;99.90
5176;DHT22;2607;50.934;6.934;2023-02-04T04:12:57;8.60;99.90
5176;DHT22;2607;50.934;6.934;2023-02-04T04:15:23;8.60;99.90
5176;DHT22;2607;50.934;6.934;2023-02-04T04:17:49;8.60;99.90
5176;DHT22;2607;50.934;6.934;2023-02-04T04:20:15;8.50;99.90
5176;DHT22;2607;50.934;6.934;2023-02-04T04:22:40;8.60;99.90
5176;DHT22;2607;50.934;6.934;2023-02-04T04:25:07;8.60;99.90
5176;DHT22;2607;50.934;6.934;2023-02-04T04:27:32;8.60;99.90
5176;DHT22;2607;50.934;6.934;2023-02-04T04:29:58;8.60;99.90
5176;DHT22;2607;50.934;6.934;2023-02-04T04:32:24;8.60;99.90
5176;DHT22;2607;50.934;6.934;2023-02-04T04:34:49;8.60;99.90
5176;DHT22;2607;50.934;6.934;2023-02-04T04:37:15;8.50;99.90
5176;DHT22;2607;50.934;6.934;2023-02-04T04:39:40;8.50;99.90
5176;DHT22;2607;50.934;6.934;2023-02-04T04:42:06;8.50;99.90
5176;DHT22;2607;50.934;6.934;2023-02-04T04:44:33;8.50;99.90
5176;DHT22;2607;50.934;6.934;2023-02-04T04:46:58;8.50;99.90
5176;DHT22;2607;50.934;6.934;2023-02-04T04:49:24;8.50;99.90
5176;DHT22;2607;50.934;6.934;2023-02-04T04:51:49;8.40;99.90
5176;DHT22;2607;50.934;6.934;2023-02-04T04:54:15;8.50;99.90
5176;DHT22;2607;50.934;6.934;2023-02-04T04:56:40;8.40;99.90
5176;DHT22;2607;50.934;6.934;2023-02-04T04:59:06;8.40;99.90
5176;DHT22;2607;50.934;6.934;2023-02-04T05:01:31;8.40;99.90
5176;DHT22;2607;50.934;6.934;2023-02-04T05:03:57;8.40;99.90
5176;DHT22;2607;50.934;6.934;2023-02-04T05:06:23;8.40;99.90
5176;DHT22;2607;50.934;6.934;2023-02-04T05:08:53;8.40;99.90
5176;DHT22;2607;50.934;6.934;2023-02-04T05:11:19;8.40;99.90
5176;DHT22;2607;50.934;6.934;2023-02-04T05:13:44;8.40;99.90
5176;DHT22;2607;50.934;6.934;2023-02-04T05:16:10;8.40;99.90
5176;DHT22;2607;50.934;6.934;2023-02-04T05:18:39;8.40;99.90
5176;DHT22;2607;50.934;6.934;2023-02-04T05:21:06;8.40;99.90
5176;DHT22;2607;50.934;6.934;2023-02-04T05:23:32;8.40;99.90
5176;DHT22;2607;50.934;6.934;2023-02-04T05:25:58;8.40;99.90
5176;DHT22;2607;50.934;6.934;2023-02-04T05:28:23;8.30;99.90
5176;DHT22;2607;50.934;6.934;2023-02-04T05:30:49;8.30;99.90
5176;DHT22;2607;50.934;6.934;2023-02-04T05:33:14;8.30;99.90
5176;DHT22;2607;50.934;6.934;2023-02-04T05:35:40;8.30;99.90
5176;DHT22;2607;50.934;6.934;2023-02-04T05:38:06;8.30;99.90
5176;DHT22;2607;50.934;6.934;2023-02-04T05:40:31;8.30;99.90
5176;DHT22;2607;50.934;6.934;2023-02-04T05:42:57;8.20;99.90
5176;DHT22;2607;50.934;6.934;2023-02-04T05:45:22;8.20;99.90
5176;DHT22;2607;50.934;6.934;2023-02-04T05:47:48;8.20;99.90
5176;DHT22;2607;50.934;6.934;2023-02-04T05:50:13;8.20;99.90
5176;DHT22;2607;50.934;6.934;2023-02-04T05:52:39;8.20;99.90
5176;DHT22;2607;50.934;6.934;2023-02-04T05:55:06;8.20;99.90
5176;DHT22;2607;50.934;6.934;2023-02-04T05:57:31;8.20;99.90
5176;DHT22;2607;50.934;6.934;2023-02-04T05:59:57;8.20;99.90
5176;DHT22;2607;50.934;6.934;2023-02-04T06:02:23;8.20;99.90
5176;DHT22;2607;50.934;6.934;2023-02-04T06:04:49;8.20;99.90
5176;DHT22;2607;50.934;6.934;2023-02-04T06:07:14;8.20;99.90
5176;DHT22;2607;50.934;6.934;2023-02-04T06:09:40;8.20;99.90
5176;DHT22;2607;50.934;6.934;2023-02-04T06:12:05;8.20;99.90
5176;DHT22;2607;50.934;6.934;2023-02-04T06:14:31;8.20;99.90
5176;DHT22;2607;50.934;6.934;2023-02-04T06:16:56;8.20;99.90
5176;DHT22;2607;50.934;6.934;2023-02-04T06:19:24;8.20;99.90
5176;DHT22;2607;50.934;6.934;2023-02-04T06:21:49;8.20;99.90
5176;DHT22;2607;50.934;6.934;2023-02-04T06:24:15;8.20;99.90
5176;DHT22;2607;50.934;6.934;2023-02-04T06:26:40;8.20;99.90
5176;DHT22;2607;50.934;6.934;2023-02-04T06:29:06;8.20;99.90
5176;DHT22;2607;50.934;6.934;2023-02-04T06:31:31;8.20;99.90
5176;DHT22;2607;50.934;6.934;2023-02-04T06:33:57;8.10;99.90
5176;DHT22;2607;50.934;6.934;2023-02-04T06:36:22;8.10;99.90
5176;DHT22;2607;50.934;6.934;2023-02-04T06:38:48;8.10;99.90
5176;DHT22;2607;50.934;6.934;2023-02-04T06:41:13;8.10;99.90
5176;DHT22;2607;50.934;6.934;2023-02-04T06:43:39;8.10;99.90
5176;DHT22;2607;50.934;6.934;2023-02-04T06:46:05;8.10;99.90
5176;DHT22;2607;50.934;6.934;2023-02-04T06:48:30;8.10;99.90
5176;DHT22;2607;50.934;6.934;2023-02-04T06:50:56;8.00;99.90
5176;DHT22;2607;50.934;6.934;2023-02-04T06:53:21;8.00;99.90
5176;DHT22;2607;50.934;6.934;2023-02-04T06:55:47;8.00;99.90
5176;DHT22;2607;50.934;6.934;2023-02-04T06:58:12;8.00;99.90
5176;DHT22;2607;50.934;6.934;2023-02-04T07:00:38;8.00;99.90
5176;DHT22;2607;50.934;6.934;2023-02-04T07:03:03;7.90;99.90
5176;DHT22;2607;50.934;6.934;2023-02-04T07:05:31;7.90;99.90
5176;DHT22;2607;50.934;6.934;2023-02-04T07:08:01;7.90;99.90
5176;DHT22;2607;50.934;6.934;2023-02-04T07:10:27;7.90;99.90
5176;DHT22;2607;50.934;6.934;2023-02-04T07:12:52;7.90;99.90
5176;DHT22;2607;50.934;6.934;2023-02-04T07:15:18;7.90;99.90
5176;DHT22;2607;50.934;6.934;2023-02-04T07:17:43;7.90;99.90
5176;DHT22;2607;50.934;6.934;2023-02-04T07:20:10;7.90;99.90
5176;DHT22;2607;50.934;6.934;2023-02-04T07:22:36;7.90;99.90
5176;DHT22;2607;50.934;6.934;2023-02-04T07:25:01;7.90;99.90
5176;DHT22;2607;50.934;6.934;2023-02-04T07:27:27;7.90;99.90
5176;DHT22;2607;50.934;6.934;2023-02-04T07:29:53;7.90;99.90
5176;DHT22;2607;50.934;6.934;2023-02-04T07:32:18;7.90;99.90
5176;DHT22;2607;50.934;6.934;2023-02-04T07:34:44;7.90;99.90
5176;DHT22;2607;50.934;6.934;2023-02-04T07:37:09;7.90;99.90
5176;DHT22;2607;50.934;6.934;2023-02-04T07:39:35;7.90;99.90
5176;DHT22;2607;50.934;6.934;2023-02-04T07:42:00;7.90;99.90
5176;DHT22;2607;50.934;6.934;2023-02-04T07:44:26;7.90;99.90
5176;DHT22;2607;50.934;6.934;2023-02-04T07:46:51;7.90;99.90
5176;DHT22;2607;50.934;6.934;2023-02-04T07:49:17;7.90;99.90
5176;DHT22;2607;50.934;6.934;2023-02-04T07:51:42;7.90;99.90
5176;DHT22;2607;50.934;6.934;2023-02-04T07:54:08;7.90;99.90
5176;DHT22;2607;50.934;6.934;2023-02-04T07:56:34;7.90;99.90
5176;DHT22;2607;50.934;6.934;2023-02-04T07:58:59;8.00;99.90
5176;DHT22;2607;50.934;6.934;2023-02-04T08:01:25;8.00;99.90
5176;DHT22;2607;50.934;6.934;2023-02-04T08:03:50;8.00;99.90
5176;DHT22;2607;50.934;6.934;2023-02-04T08:06:16;8.00;99.90
5176;DHT22;2607;50.934;6.934;2023-02-04T08:08:41;8.00;99.90
5176;DHT22;2607;50.934;6.934;2023-02-04T08:11:07;8.00;99.90
5176;DHT22;2607;50.934;6.934;2023-02-04T08:13:32;8.00;99.90
5176;DHT22;2607;50.934;6.934;2023-02-04T08:15:58;8.00;99.90
5176;DHT22;2607;50.934;6.934;2023-02-04T08:18:23;8.00;99.90
5176;DHT22;2607;50.934;6.934;2023-02-04T08:20:50;8.00;99.90
5176;DHT22;2607;50.934;6.934;2023-02-04T08:23:15;8.00;99.90
5176;DHT22;2607;50.934;6.934;2023-02-04T08:25:42;8.00;99.90
5176;DHT22;2607;50.934;6.934;2023-02-04T08:28:09;8.00;99.90
5176;DHT22;2607;50.934;6.934;2023-02-04T08:30:35;8.00;99.90
5176;DHT22;2607;50.934;6.934;2023-02-04T08:33:00;8.10;99.90
5176;DHT22;2607;50.934;6.934;2023-02-04T08:35:26;8.10;99.90
5176;DHT22;2607;50.934;6.934;2023-02-04T08:37:52;8.10;99.90
5176;DHT22;2607;50.934;6.934;2023-02-04T08:40:17;8.10;99.90
5176;DHT22;2607;50.934;6.934;2023-02-04T08:42:43;8.10;99.90
5176;DHT22;2607;50.934;6.934;2023-02-04T08:45:09;8.20;99.90
5176;DHT22;2607;50.934;6.934;2023-02-04T08:47:34;8.20;99.90
5176;DHT22;2607;50.934;6.934;2023-02-04T08:50:00;8.30;99.90
5176;DHT22;2607;50.934;6.934;2023-02-04T08:52:25;8.30;99.90
5176;DHT22;2607;50.934;6.934;2023-02-04T08:54:51;8.30;99.90
5176;DHT22;2607;50.934;6.934;2023-02-04T08:57:16;8.30;99.90
5176;DHT22;2607;50.934;6.934;2023-02-04T08:59:42;8.30;99.90
5176;DHT22;2607;50.934;6.934;2023-02-04T09:02:08;8.30;99.90
5176;DHT22;2607;50.934;6.934;2023-02-04T09:04:34;8.30;99.90
5176;DHT22;2607;50.934;6.934;2023-02-04T09:07:00;8.30;99.90
5176;DHT22;2607;50.934;6.934;2023-02-04T09:09:25;8.30;99.90
5176;DHT22;2607;50.934;6.934;2023-02-04T09:11:51;8.30;99.90
5176;DHT22;2607;50.934;6.934;2023-02-04T09:14:16;8.30;99.90
5176;DHT22;2607;50.934;6.934;2023-02-04T09:16:42;8.30;99.90
5176;DHT22;2607;50.934;6.934;2023-02-04T09:19:07;8.40;99.90
5176;DHT22;2607;50.934;6.934;2023-02-04T09:21:36;8.40;99.90
5176;DHT22;2607;50.934;6.934;2023-02-04T09:24:02;8.40;99.90
5176;DHT22;2607;50.934;6.934;2023-02-04T09:26:28;8.50;99.90
5176;DHT22;2607;50.934;6.934;2023-02-04T09:28:53;8.50;99.90
5176;DHT22;2607;50.934;6.934;2023-02-04T09:31:19;8.50;99.90
5176;DHT22;2607;50.934;6.934;2023-02-04T09:33:44;8.50;99.90
5176;DHT22;2607;50.934;6.934;2023-02-04T09:36:10;8.60;99.90
5176;DHT22;2607;50.934;6.934;2023-02-04T09:38:35;8.60;99.90
5176;DHT22;2607;50.934;6.934;2023-02-04T09:41:04;8.70;99.90
5176;DHT22;2607;50.934;6.934;2023-02-04T09:43:38;8.70;99.90
5176;DHT22;2607;50.934;6.934;2023-02-04T09:46:04;8.80;99.90
5176;DHT22;2607;50.934;6.934;2023-02-04T09:48:30;8.80;99.90
5176;DHT22;2607;50.934;6.934;2023-02-04T09:51:06;8.80;99.90
5176;DHT22;2607;50.934;6.934;2023-02-04T09:53:33;8.80;99.90
5176;DHT22;2607;50.934;6.934;2023-02-04T09:56:00;8.90;99.90
5176;DHT22;2607;50.934;6.934;2023-02-04T09:58:29;8.90;99.90
5176;DHT22;2607;50.934;6.934;2023-02-04T10:01:09;9.00;99.90
5176;DHT22;2607;50.934;6.934;2023-02-04T10:03:37;9.00;99.90
5176;DHT22;2607;50.934;6.934;2023-02-04T10:06:04;9.00;99.90
5176;DHT22;2607;50.934;6.934;2023-02-04T10:08:32;9.10;99.90
5176;DHT22;2607;50.934;6.934;2023-02-04T10:10:57;9.10;99.90
5176;DHT22;2607;50.934;6.934;2023-02-04T10:13:30;9.10;99.90
5176;DHT22;2607;50.934;6.934;2023-02-04T10:15:57;9.20;99.90
5176;DHT22;2607;50.934;6.934;2023-02-04T10:18:30;9.20;99.90
5176;DHT22;2607;50.934;6.934;2023-02-04T10:21:07;9.20;99.90
5176;DHT22;2607;50.934;6.934;2023-02-04T10:23:36;9.20;99.90
5176;DHT22;2607;50.934;6.934;2023-02-04T10:26:02;9.20;99.90
5176;DHT22;2607;50.934;6.934;2023-02-04T10:28:35;9.20;99.90
5176;DHT22;2607;50.934;6.934;2023-02-04T10:31:01;9.20;99.90
5176;DHT22;2607;50.934;6.934;2023-02-04T10:33:26;9.20;99.90
5176;DHT22;2607;50.934;6.934;2023-02-04T10:35:54;9.20;99.90
5176;DHT22;2607;50.934;6.934;2023-02-04T10:38:20;9.20;99.90
5176;DHT22;2607;50.934;6.934;2023-02-04T10:40:46;9.20;99.90
5176;DHT22;2607;50.934;6.934;2023-02-04T10:43:21;9.30;99.90
5176;DHT22;2607;50.934;6.934;2023-02-04T10:45:58;9.30;99.90
5176;DHT22;2607;50.934;6.934;2023-02-04T10:48:24;9.30;99.90
5176;DHT22;2607;50.934;6.934;2023-02-04T10:50:50;9.30;99.90
5176;DHT22;2607;50.934;6.934;2023-02-04T10:53:18;9.30;99.90
5176;DHT22;2607;50.934;6.934;2023-02-04T10:56:04;9.30;99.90
5176;DHT22;2607;50.934;6.934;2023-02-04T10:58:30;9.40;99.90
5176;DHT22;2607;50.934;6.934;2023-02-04T11:00:56;9.40;99.90
5176;DHT22;2607;50.934;6.934;2023-02-04T11:03:27;9.40;99.90
5176;DHT22;2607;50.934;6.934;2023-02-04T11:05:56;9.40;99.90
5176;DHT22;2607;50.934;6.934;2023-02-04T11:08:24;9.40;99.90
5176;DHT22;2607;50.934;6.934;2023-02-04T11:11:03;9.50;99.90
5176;DHT22;2607;50.934;6.934;2023-02-04T11:22:03;9.60;99.90
5176;DHT22;2607;50.934;6.934;2023-02-04T11:26:46;9.60;99.90
5176;DHT22;2607;50.934;6.934;2023-02-04T11:39:39;9.80;99.90
5176;DHT22;2607;50.934;6.934;2023-02-04T11:42:16;9.80;99.90
5176;DHT22;2607;50.934;6.934;2023-02-04T11:44:50;9.80;99.90
5176;DHT22;2607;50.934;6.934;2023-02-04T11:47:16;9.90;99.90
5176;DHT22;2607;50.934;6.934;2023-02-04T11:49:42;9.90;99.90
5176;DHT22;2607;50.934;6.934;2023-02-04T11:52:13;9.90;99.90
5176;DHT22;2607;50.934;6.934;2023-02-04T11:54:39;9.90;99.90
5176;DHT22;2607;50.934;6.934;2023-02-04T11:57:05;9.90;99.90
5176;DHT22;2607;50.934;6.934;2023-02-04T11:59:30;10.00;99.90
5176;DHT22;2607;50.934;6.934;2023-02-04T12:02:04;10.00;99.90
5176;DHT22;2607;50.934;6.934;2023-02-04T12:04:29;10.00;99.90
5176;DHT22;2607;50.934;6.934;2023-02-04T12:06:58;10.10;99.90
5176;DHT22;2607;50.934;6.934;2023-02-04T12:09:25;10.10;99.90
5176;DHT22;2607;50.934;6.934;2023-02-04T12:11:52;10.10;99.90
5176;DHT22;2607;50.934;6.934;2023-02-04T12:14:18;10.20;99.90
5176;DHT22;2607;50.934;6.934;2023-02-04T12:16:49;10.20;99.90
5176;DHT22;2607;50.934;6.934;2023-02-04T12:19:18;10.10;99.90
5176;DHT22;2607;50.934;6.934;2023-02-04T12:21:44;10.10;99.90
5176;DHT22;2607;50.934;6.934;2023-02-04T12:24:09;10.10;99.90
5176;DHT22;2607;50.934;6.934;2023-02-04T12:26:35;10.20;99.90
5176;DHT22;2607;50.934;6.934;2023-02-04T12:29:00;10.20;99.90
5176;DHT22;2607;50.934;6.934;2023-02-04T12:31:31;10.20;99.90
5176;DHT22;2607;50.934;6.934;2023-02-04T12:33:58;10.30;99.90
5176;DHT22;2607;50.934;6.934;2023-02-04T12:36:24;10.20;99.90
5176;DHT22;2607;50.934;6.934;2023-02-04T12:38:55;10.20;99.90
5176;DHT22;2607;50.934;6.934;2023-02-04T12:41:23;10.20;99.90
5176;DHT22;2607;50.934;6.934;2023-02-04T12:43:48;10.20;99.90
5176;DHT22;2607;50.934;6.934;2023-02-04T12:46:15;10.30;99.90
5176;DHT22;2607;50.934;6.934;2023-02-04T12:48:41;10.30;99.90
5176;DHT22;2607;50.934;6.934;2023-02-04T12:51:07;10.30;99.90
5176;DHT22;2607;50.934;6.934;2023-02-04T12:53:32;10.30;99.90
5176;DHT22;2607;50.934;6.934;2023-02-04T12:55:58;10.30;99.90
5176;DHT22;2607;50.934;6.934;2023-02-04T12:58:24;10.30;99.90
5176;DHT22;2607;50.934;6.934;2023-02-04T13:00:49;10.30;99.90
5176;DHT22;2607;50.934;6.934;2023-02-04T13:03:15;10.30;99.90
5176;DHT22;2607;50.934;6.934;2023-02-04T13:05:40;10.30;99.90
5176;DHT22;2607;50.934;6.934;2023-02-04T13:08:06;10.30;99.90
5176;DHT22;2607;50.934;6.934;2023-02-04T13:10:32;10.30;99.90
5176;DHT22;2607;50.934;6.934;2023-02-04T13:12:57;10.30;99.90
5176;DHT22;2607;50.934;6.934;2023-02-04T13:15:24;10.30;99.90
5176;DHT22;2607;50.934;6.934;2023-02-04T13:17:50;10.30;99.90
5176;DHT22;2607;50.934;6.934;2023-02-04T13:20:16;10.30;99.90
5176;DHT22;2607;50.934;6.934;2023-02-04T13:22:41;10.30;99.90
5176;DHT22;2607;50.934;6.934;2023-02-04T13:25:07;10.30;99.90
5176;DHT22;2607;50.934;6.934;2023-02-04T13:27:34;10.30;99.90
5176;DHT22;2607;50.934;6.934;2023-02-04T13:30:00;10.30;99.90
5176;DHT22;2607;50.934;6.934;2023-02-04T13:32:25;10.30;99.90
5176;DHT22;2607;50.934;6.934;2023-02-04T13:34:51;10.40;99.90
5176;DHT22;2607;50.934;6.934;2023-02-04T13:37:17;10.40;99.90
5176;DHT22;2607;50.934;6.934;2023-02-04T13:39:42;10.40;99.90
5176;DHT22;2607;50.934;6.934;2023-02-04T13:42:08;10.40;99.90
5176;DHT22;2607;50.934;6.934;2023-02-04T13:44:33;10.50;99.90
5176;DHT22;2607;50.934;6.934;2023-02-04T13:46:59;10.50;99.90
5176;DHT22;2607;50.934;6.934;2023-02-04T13:49:24;10.50;99.90
5176;DHT22;2607;50.934;6.934;2023-02-04T13:51:50;10.50;99.90
5176;DHT22;2607;50.934;6.934;2023-02-04T13:54:16;10.50;99.90
5176;DHT22;2607;50.934;6.934;2023-02-04T13:56:41;10.50;99.90
5176;DHT22;2607;50.934;6.934;2023-02-04T13:59:07;10.40;99.90
5176;DHT22;2607;50.934;6.934;2023-02-04T14:01:32;10.40;99.90
5176;DHT22;2607;50.934;6.934;2023-02-04T14:03:58;10.30;99.90
5176;DHT22;2607;50.934;6.934;2023-02-04T14:06:23;10.30;99.90
5176;DHT22;2607;50.934;6.934;2023-02-04T14:08:58;10.30;99.90
5176;DHT22;2607;50.934;6.934;2023-02-04T14:11:24;10.30;99.90
5176;DHT22;2607;50.934;6.934;2023-02-04T14:13:49;10.30;99.90
5176;DHT22;2607;50.934;6.934;2023-02-04T14:16:15;10.30;99.90
5176;DHT22;2607;50.934;6.934;2023-02-04T14:18:40;10.30;99.90
5176;DHT22;2607;50.934;6.934;2023-02-04T14:21:06;10.20;99.90
5176;DHT22;2607;50.934;6.934;2023-02-04T14:23:32;10.20;99.90
5176;DHT22;2607;50.934;6.934;2023-02-04T14:25:57;10.20;99.90
5176;DHT22;2607;50.934;6.934;2023-02-04T14:28:23;10.20;99.90
5176;DHT22;2607;50.934;6.934;2023-02-04T14:30:49;10.20;99.90
5176;DHT22;2607;50.934;6.934;2023-02-04T14:33:14;10.20;99.90
5176;DHT22;2607;50.934;6.934;2023-02-04T14:35:43;10.20;99.90
5176;DHT22;2607;50.934;6.934;2023-02-04T14:38:08;10.30;99.90
5176;DHT22;2607;50.934;6.934;2023-02-04T14:40:36;10.30;99.90
5176;DHT22;2607;50.934;6.934;2023-02-04T14:43:01;10.30;99.90
5176;DHT22;2607;50.934;6.934;2023-02-04T14:45:27;10.40;99.90
5176;DHT22;2607;50.934;6.934;2023-02-04T14:47:53;10.40;99.90
5176;DHT22;2607;50.934;6.934;2023-02-04T14:50:21;10.50;99.90
5176;DHT22;2607;50.934;6.934;2023-02-04T14:52:52;10.60;99.90
5176;DHT22;2607;50.934;6.934;2023-02-04T14:55:17;10.60;99.90
5176;DHT22;2607;50.934;6.934;2023-02-04T14:57:43;10.50;99.90
5176;DHT22;2607;50.934;6.934;2023-02-04T15:00:09;10.50;99.90
5176;DHT22;2607;50.934;6.934;2023-02-04T15:02:35;10.50;99.90
5176;DHT22;2607;50.934;6.934;2023-02-04T15:05:01;10.40;99.90
5176;DHT22;2607;50.934;6.934;2023-02-04T15:07:27;10.40;99.90
5176;DHT22;2607;50.934;6.934;2023-02-04T15:09:52;10.30;99.90
5176;DHT22;2607;50.934;6.934;2023-02-04T15:12:18;10.30;99.90
5176;DHT22;2607;50.934;6.934;2023-02-04T15:14:43;10.30;99.90
5176;DHT22;2607;50.934;6.934;2023-02-04T15:17:09;10.30;99.90
5176;DHT22;2607;50.934;6.934;2023-02-04T15:19:35;10.30;99.90
5176;DHT22;2607;50.934;6.934;2023-02-04T15:22:00;10.20;99.90
5176;DHT22;2607;50.934;6.934;2023-02-04T15:24:26;10.30;99.90
5176;DHT22;2607;50.934;6.934;2023-02-04T15:26:53;10.30;99.90
5176;DHT22;2607;50.934;6.934;2023-02-04T15:29:19;10.30;99.90
5176;DHT22;2607;50.934;6.934;2023-02-04T15:31:45;10.20;99.90
5176;DHT22;2607;50.934;6.934;2023-02-04T15:34:11;10.20;99.90
5176;DHT22;2607;50.934;6.934;2023-02-04T15:36:36;10.20;99.90
5176;DHT22;2607;50.934;6.934;2023-02-04T15:39:02;10.20;99.90
5176;DHT22;2607;50.934;6.934;2023-02-04T15:41:28;10.20;99.90
5176;DHT22;2607;50.934;6.934;2023-02-04T15:43:53;10.20;99.90
5176;DHT22;2607;50.934;6.934;2023-02-04T15:46:19;10.10;99.90
5176;DHT22;2607;50.934;6.934;2023-02-04T15:48:45;10.10;99.90
5176;DHT22;2607;50.934;6.934;2023-02-04T15:51:10;10.10;99.90
5176;DHT22;2607;50.934;6.934;2023-02-04T15:53:36;10.10;99.90
5176;DHT22;2607;50.934;6.934;2023-02-04T15:56:03;10.10;99.90
5176;DHT22;2607;50.934;6.934;2023-02-04T15:58:29;10.10;99.90
5176;DHT22;2607;50.934;6.934;2023-02-04T16:00:55;10.10;99.90
5176;DHT22;2607;50.934;6.934;2023-02-04T16:03:22;10.00;99.90
5176;DHT22;2607;50.934;6.934;2023-02-04T16:05:47;10.00;99.90
5176;DHT22;2607;50.934;6.934;2023-02-04T16:08:13;10.00;99.90
5176;DHT22;2607;50.934;6.934;2023-02-04T16:10:39;10.00;99.90
5176;DHT22;2607;50.934;6.934;2023-02-04T16:13:04;9.90;99.90
5176;DHT22;2607;50.934;6.934;2023-02-04T16:15:30;9.90;99.90
5176;DHT22;2607;50.934;6.934;2023-02-04T16:17:55;9.90;99.90
5176;DHT22;2607;50.934;6.934;2023-02-04T16:20:22;9.80;99.90
5176;DHT22;2607;50.934;6.934;2023-02-04T16:22:47;9.80;99.90
5176;DHT22;2607;50.934;6.934;2023-02-04T16:25:13;9.80;99.90
5176;DHT22;2607;50.934;6.934;2023-02-04T16:27:39;9.70;99.90
5176;DHT22;2607;50.934;6.934;2023-02-04T16:30:05;9.70;99.90